sensor_id;sensor_type;location;lat;lon;timestamp;P1;durP1;ratioP1;P2;durP2;ratioP2
75878;SDS011;64555;43.430;4.942;2022-11-20T00:00:44;1.00;;;1.00;;
75878;SDS011;64555;43.430;4.942;2022-11-20T00:03:10;5.00;;;3.25;;
75878;SDS011;64555;43.430;4.942;2022-11-20T00:05:35;1.67;;;1.67;;
75878;SDS011;64555;43.430;4.942;2022-11-20T00:08:00;3.00;;;1.00;;
75878;SDS011;64555;43.430;4.942;2022-11-20T00:10:25;2.00;;;2.00;;
75878;SDS011;64555;43.430;4.942;2022-11-20T00:12:51;0.80;;;0.80;;
75878;SDS011;64555;43.430;4.942;2022-11-20T00:15:16;1.00;;;1.00;;
75878;SDS011;64555;43.430;4.942;2022-11-20T00:17:42;3.00;;;1.50;;
75878;SDS011;64555;43.430;4.942;2022-11-20T00:20:07;4.00;;;2.00;;
75878;SDS011;64555;43.430;4.942;2022-11-20T00:22:33;3.00;;;2.00;;
75878;SDS011;64555;43.430;4.942;2022-11-20T00:24:58;3.75;;;1.75;;
75878;SDS011;64555;43.430;4.942;2022-11-20T00:27:23;2.00;;;2.00;;
75878;SDS011;64555;43.430;4.942;2022-11-20T00:29:48;1.00;;;1.00;;
75878;SDS011;64555;43.430;4.942;2022-11-20T00:32:14;2.00;;;2.00;;
75878;SDS011;64555;43.430;4.942;2022-11-20T00:34:39;1.00;;;1.00;;
75878;SDS011;64555;43.430;4.942;2022-11-20T00:37:04;1.00;;;1.00;;
75878;SDS011;64555;43.430;4.942;2022-11-20T00:39:29;2.00;;;2.00;;
75878;SDS011;64555;43.430;4.942;2022-11-20T00:41:55;3.00;;;1.00;;
75878;SDS011;64555;43.430;4.942;2022-11-20T00:44:20;1.00;;;1.00;;
75878;SDS011;64555;43.430;4.942;2022-11-20T00:46:45;1.00;;;1.00;;
75878;SDS011;64555;43.430;4.942;2022-11-20T00:49:10;2.25;;;2.00;;
75878;SDS011;64555;43.430;4.942;2022-11-20T00:51:35;2.00;;;2.00;;
75878;SDS011;64555;43.430;4.942;2022-11-20T00:54:01;2.00;;;2.00;;
75878;SDS011;64555;43.430;4.942;2022-11-20T00:56:27;3.00;;;2.00;;
75878;SDS011;64555;43.430;4.942;2022-11-20T00:58:52;3.50;;;3.50;;
75878;SDS011;64555;43.430;4.942;2022-11-20T01:01:19;3.00;;;2.00;;
75878;SDS011;64555;43.430;4.942;2022-11-20T01:03:46;1.00;;;1.00;;
75878;SDS011;64555;43.430;4.942;2022-11-20T01:06:16;1.00;;;1.00;;
75878;SDS011;64555;43.430;4.942;2022-11-20T01:08:41;2.00;;;2.00;;
75878;SDS011;64555;43.430;4.942;2022-11-20T01:11:17;2.00;;;2.00;;
75878;SDS011;64555;43.430;4.942;2022-11-20T01:13:43;1.00;;;1.00;;
75878;SDS011;64555;43.430;4.942;2022-11-20T01:16:12;2.00;;;2.00;;
75878;SDS011;64555;43.430;4.942;2022-11-20T01:18:39;3.00;;;2.00;;
75878;SDS011;64555;43.430;4.942;2022-11-20T01:21:06;2.00;;;2.00;;
75878;SDS011;64555;43.430;4.942;2022-11-20T01:23:35;2.00;;;2.00;;
75878;SDS011;64555;43.430;4.942;2022-11-20T01:26:02;2.00;;;2.00;;
75878;SDS011;64555;43.430;4.942;2022-11-20T01:28:28;1.00;;;1.00;;
75878;SDS011;64555;43.430;4.942;2022-11-20T01:30:53;3.50;;;2.50;;
75878;SDS011;64555;43.430;4.942;2022-11-20T01:33:19;2.00;;;2.00;;
75878;SDS011;64555;43.430;4.942;2022-11-20T01:35:44;2.00;;;2.00;;
75878;SDS011;64555;43.430;4.942;2022-11-20T01:38:09;2.00;;;2.00;;
75878;SDS011;64555;43.430;4.942;2022-11-20T01:40:34;2.50;;;1.00;;
75878;SDS011;64555;43.430;4.942;2022-11-20T01:43:06;3.00;;;1.00;;
75878;SDS011;64555;43.430;4.942;2022-11-20T01:48:13;6.33;;;3.00;;
75878;SDS011;64555;43.430;4.942;2022-11-20T01:50:38;1.00;;;1.00;;
75878;SDS011;64555;43.430;4.942;2022-11-20T01:53:06;2.00;;;1.00;;
75878;SDS011;64555;43.430;4.942;2022-11-20T01:55:33;3.40;;;2.60;;
75878;SDS011;64555;43.430;4.942;2022-11-20T01:57:59;2.00;;;2.00;;
75878;SDS011;64555;43.430;4.942;2022-11-20T02:00:25;2.00;;;2.00;;
75878;SDS011;64555;43.430;4.942;2022-11-20T02:02:57;2.50;;;2.50;;
75878;SDS011;64555;43.430;4.942;2022-11-20T02:05:36;2.00;;;2.00;;
75878;SDS011;64555;43.430;4.942;2022-11-20T02:08:04;2.00;;;2.00;;
75878;SDS011;64555;43.430;4.942;2022-11-20T02:10:30;2.00;;;2.00;;
75878;SDS011;64555;43.430;4.942;2022-11-20T02:12:56;3.00;;;2.00;;
75878;SDS011;64555;43.430;4.942;2022-11-20T02:15:40;1.50;;;1.50;;
75878;SDS011;64555;43.430;4.942;2022-11-20T02:18:05;1.00;;;1.00;;
75878;SDS011;64555;43.430;4.942;2022-11-20T02:20:32;2.00;;;2.00;;
75878;SDS011;64555;43.430;4.942;2022-11-20T02:23:05;4.00;;;3.00;;
75878;SDS011;64555;43.430;4.942;2022-11-20T02:25:32;2.00;;;2.00;;
75878;SDS011;64555;43.430;4.942;2022-11-20T02:27:58;2.00;;;2.00;;
75878;SDS011;64555;43.430;4.942;2022-11-20T02:30:24;1.00;;;1.00;;
75878;SDS011;64555;43.430;4.942;2022-11-20T02:32:49;2.00;;;2.00;;
75878;SDS011;64555;43.430;4.942;2022-11-20T02:37:43;3.00;;;3.00;;
75878;SDS011;64555;43.430;4.942;2022-11-20T02:40:08;2.00;;;2.00;;
75878;SDS011;64555;43.430;4.942;2022-11-20T02:42:34;1.60;;;1.60;;
75878;SDS011;64555;43.430;4.942;2022-11-20T02:45:00;1.50;;;1.50;;
75878;SDS011;64555;43.430;4.942;2022-11-20T02:47:25;2.00;;;2.00;;
75878;SDS011;64555;43.430;4.942;2022-11-20T02:49:50;2.33;;;2.33;;
75878;SDS011;64555;43.430;4.942;2022-11-20T02:52:15;2.00;;;2.00;;
75878;SDS011;64555;43.430;4.942;2022-11-20T02:54:41;4.00;;;2.00;;
75878;SDS011;64555;43.430;4.942;2022-11-20T02:57:06;4.25;;;3.00;;
75878;SDS011;64555;43.430;4.942;2022-11-20T02:59:32;2.00;;;2.00;;
75878;SDS011;64555;43.430;4.942;2022-11-20T03:01:57;2.25;;;2.25;;
75878;SDS011;64555;43.430;4.942;2022-11-20T03:04:22;2.00;;;1.50;;
75878;SDS011;64555;43.430;4.942;2022-11-20T03:06:47;2.00;;;2.00;;
75878;SDS011;64555;43.430;4.942;2022-11-20T03:09:13;2.00;;;2.00;;
75878;SDS011;64555;43.430;4.942;2022-11-20T03:11:38;1.25;;;1.25;;
75878;SDS011;64555;43.430;4.942;2022-11-20T03:14:03;2.00;;;2.00;;
75878;SDS011;64555;43.430;4.942;2022-11-20T03:16:30;2.00;;;2.00;;
75878;SDS011;64555;43.430;4.942;2022-11-20T03:18:55;3.00;;;3.00;;
75878;SDS011;64555;43.430;4.942;2022-11-20T03:21:20;2.00;;;1.00;;
75878;SDS011;64555;43.430;4.942;2022-11-20T03:23:46;3.00;;;3.00;;
75878;SDS011;64555;43.430;4.942;2022-11-20T03:28:36;2.00;;;2.00;;
75878;SDS011;64555;43.430;4.942;2022-11-20T03:31:06;2.00;;;2.00;;
75878;SDS011;64555;43.430;4.942;2022-11-20T03:33:31;1.00;;;1.00;;
75878;SDS011;64555;43.430;4.942;2022-11-20T03:36:00;4.00;;;1.00;;
75878;SDS011;64555;43.430;4.942;2022-11-20T03:38:25;2.00;;;2.00;;
75878;SDS011;64555;43.430;4.942;2022-11-20T03:40:57;2.00;;;2.00;;
75878;SDS011;64555;43.430;4.942;2022-11-20T03:43:22;2.25;;;2.25;;
75878;SDS011;64555;43.430;4.942;2022-11-20T03:45:48;2.00;;;2.00;;
75878;SDS011;64555;43.430;4.942;2022-11-20T03:48:13;1.75;;;1.75;;
75878;SDS011;64555;43.430;4.942;2022-11-20T03:50:38;3.00;;;2.00;;
75878;SDS011;64555;43.430;4.942;2022-11-20T03:53:03;4.00;;;3.00;;
75878;SDS011;64555;43.430;4.942;2022-11-20T03:55:28;3.00;;;3.00;;
75878;SDS011;64555;43.430;4.942;2022-11-20T03:57:55;2.00;;;2.00;;
75878;SDS011;64555;43.430;4.942;2022-11-20T04:00:20;2.75;;;2.00;;
75878;SDS011;64555;43.430;4.942;2022-11-20T04:02:46;2.67;;;2.67;;
75878;SDS011;64555;43.430;4.942;2022-11-20T04:05:11;2.25;;;2.25;;
75878;SDS011;64555;43.430;4.942;2022-11-20T04:07:36;2.00;;;2.00;;
75878;SDS011;64555;43.430;4.942;2022-11-20T04:10:02;2.50;;;2.00;;
75878;SDS011;64555;43.430;4.942;2022-11-20T04:12:27;2.50;;;1.50;;
75878;SDS011;64555;43.430;4.942;2022-11-20T04:14:52;3.00;;;3.00;;
75878;SDS011;64555;43.430;4.942;2022-11-20T04:17:17;4.00;;;2.00;;
75878;SDS011;64555;43.430;4.942;2022-11-20T04:19:43;1.50;;;1.50;;
75878;SDS011;64555;43.430;4.942;2022-11-20T04:22:08;4.00;;;3.00;;
75878;SDS011;64555;43.430;4.942;2022-11-20T04:24:33;2.50;;;2.50;;
75878;SDS011;64555;43.430;4.942;2022-11-20T04:26:58;4.00;;;2.00;;
75878;SDS011;64555;43.430;4.942;2022-11-20T04:29:25;6.00;;;3.00;;
75878;SDS011;64555;43.430;4.942;2022-11-20T04:31:50;2.00;;;2.00;;
75878;SDS011;64555;43.430;4.942;2022-11-20T04:34:16;3.00;;;3.00;;
75878;SDS011;64555;43.430;4.942;2022-11-20T04:36:41;4.00;;;2.00;;
75878;SDS011;64555;43.430;4.942;2022-11-20T04:39:11;2.75;;;2.75;;
75878;SDS011;64555;43.430;4.942;2022-11-20T04:41:37;4.00;;;2.00;;
75878;SDS011;64555;43.430;4.942;2022-11-20T04:44:04;6.00;;;3.00;;
75878;SDS011;64555;43.430;4.942;2022-11-20T04:46:31;3.00;;;3.00;;
75878;SDS011;64555;43.430;4.942;2022-11-20T04:48:56;6.50;;;4.00;;
75878;SDS011;64555;43.430;4.942;2022-11-20T04:51:22;4.00;;;3.00;;
75878;SDS011;64555;43.430;4.942;2022-11-20T04:53:47;2.75;;;2.75;;
75878;SDS011;64555;43.430;4.942;2022-11-20T04:56:13;2.00;;;2.00;;
75878;SDS011;64555;43.430;4.942;2022-11-20T04:58:39;3.00;;;3.00;;
75878;SDS011;64555;43.430;4.942;2022-11-20T05:01:10;2.00;;;2.00;;
75878;SDS011;64555;43.430;4.942;2022-11-20T05:03:35;3.00;;;2.00;;
75878;SDS011;64555;43.430;4.942;2022-11-20T05:06:01;2.25;;;2.25;;
75878;SDS011;64555;43.430;4.942;2022-11-20T05:08:26;2.00;;;2.00;;
75878;SDS011;64555;43.430;4.942;2022-11-20T05:10:52;3.00;;;3.00;;
75878;SDS011;64555;43.430;4.942;2022-11-20T05:13:17;2.00;;;2.00;;
75878;SDS011;64555;43.430;4.942;2022-11-20T05:15:42;1.00;;;1.00;;
75878;SDS011;64555;43.430;4.942;2022-11-20T05:18:08;2.00;;;2.00;;
75878;SDS011;64555;43.430;4.942;2022-11-20T05:20:33;2.00;;;2.00;;
75878;SDS011;64555;43.430;4.942;2022-11-20T05:22:58;4.00;;;3.00;;
75878;SDS011;64555;43.430;4.942;2022-11-20T05:25:24;5.67;;;2.00;;
75878;SDS011;64555;43.430;4.942;2022-11-20T05:27:49;2.00;;;2.00;;
75878;SDS011;64555;43.430;4.942;2022-11-20T05:30:14;3.00;;;3.00;;
75878;SDS011;64555;43.430;4.942;2022-11-20T05:32:40;2.00;;;2.00;;
75878;SDS011;64555;43.430;4.942;2022-11-20T05:35:05;4.00;;;4.00;;
75878;SDS011;64555;43.430;4.942;2022-11-20T05:37:31;2.60;;;2.60;;
75878;SDS011;64555;43.430;4.942;2022-11-20T05:39:56;2.00;;;2.00;;
75878;SDS011;64555;43.430;4.942;2022-11-20T05:42:21;2.00;;;2.00;;
75878;SDS011;64555;43.430;4.942;2022-11-20T05:44:56;2.00;;;2.00;;
75878;SDS011;64555;43.430;4.942;2022-11-20T05:47:21;2.40;;;2.00;;
75878;SDS011;64555;43.430;4.942;2022-11-20T05:49:46;2.67;;;2.67;;
75878;SDS011;64555;43.430;4.942;2022-11-20T05:52:12;2.00;;;2.00;;
75878;SDS011;64555;43.430;4.942;2022-11-20T05:54:37;2.00;;;2.00;;
75878;SDS011;64555;43.430;4.942;2022-11-20T05:57:02;3.00;;;2.33;;
75878;SDS011;64555;43.430;4.942;2022-11-20T05:59:27;3.00;;;2.00;;
75878;SDS011;64555;43.430;4.942;2022-11-20T06:01:53;3.00;;;3.00;;
75878;SDS011;64555;43.430;4.942;2022-11-20T06:04:18;2.00;;;2.00;;
75878;SDS011;64555;43.430;4.942;2022-11-20T06:06:43;2.00;;;2.00;;
75878;SDS011;64555;43.430;4.942;2022-11-20T06:09:09;3.00;;;3.00;;
75878;SDS011;64555;43.430;4.942;2022-11-20T06:11:34;4.00;;;2.50;;
75878;SDS011;64555;43.430;4.942;2022-11-20T06:13:59;4.50;;;3.00;;
75878;SDS011;64555;43.430;4.942;2022-11-20T06:16:24;5.00;;;4.00;;
75878;SDS011;64555;43.430;4.942;2022-11-20T06:18:50;3.00;;;3.00;;
75878;SDS011;64555;43.430;4.942;2022-11-20T06:21:16;2.33;;;2.33;;
75878;SDS011;64555;43.430;4.942;2022-11-20T06:23:42;3.00;;;3.00;;
75878;SDS011;64555;43.430;4.942;2022-11-20T06:26:09;3.00;;;3.00;;
75878;SDS011;64555;43.430;4.942;2022-11-20T06:28:34;2.00;;;2.00;;
75878;SDS011;64555;43.430;4.942;2022-11-20T06:31:00;2.75;;;2.00;;
75878;SDS011;64555;43.430;4.942;2022-11-20T06:33:25;2.00;;;2.00;;
75878;SDS011;64555;43.430;4.942;2022-11-20T06:35:51;3.00;;;3.00;;
75878;SDS011;64555;43.430;4.942;2022-11-20T06:38:16;3.00;;;3.00;;
75878;SDS011;64555;43.430;4.942;2022-11-20T06:40:41;4.00;;;3.00;;
75878;SDS011;64555;43.430;4.942;2022-11-20T06:43:07;3.33;;;3.00;;
75878;SDS011;64555;43.430;4.942;2022-11-20T06:45:33;3.00;;;3.00;;
75878;SDS011;64555;43.430;4.942;2022-11-20T06:47:58;4.00;;;2.00;;
75878;SDS011;64555;43.430;4.942;2022-11-20T06:50:23;3.00;;;3.00;;
75878;SDS011;64555;43.430;4.942;2022-11-20T06:52:48;4.00;;;3.00;;
75878;SDS011;64555;43.430;4.942;2022-11-20T06:55:14;2.00;;;2.00;;
75878;SDS011;64555;43.430;4.942;2022-11-20T06:57:39;4.50;;;3.00;;
75878;SDS011;64555;43.430;4.942;2022-11-20T07:00:05;2.00;;;2.00;;
75878;SDS011;64555;43.430;4.942;2022-11-20T07:02:30;2.00;;;2.00;;
75878;SDS011;64555;43.430;4.942;2022-11-20T07:04:55;2.00;;;2.00;;
75878;SDS011;64555;43.430;4.942;2022-11-20T07:07:21;3.00;;;2.50;;
75878;SDS011;64555;43.430;4.942;2022-11-20T07:09:46;3.00;;;1.00;;
75878;SDS011;64555;43.430;4.942;2022-11-20T07:12:11;3.50;;;3.50;;
75878;SDS011;64555;43.430;4.942;2022-11-20T07:14:36;1.00;;;1.00;;
75878;SDS011;64555;43.430;4.942;2022-11-20T07:17:02;3.50;;;2.00;;
75878;SDS011;64555;43.430;4.942;2022-11-20T07:19:27;2.50;;;2.50;;
75878;SDS011;64555;43.430;4.942;2022-11-20T07:21:52;3.00;;;3.00;;
75878;SDS011;64555;43.430;4.942;2022-11-20T07:24:17;4.00;;;3.00;;
75878;SDS011;64555;43.430;4.942;2022-11-20T07:26:45;3.00;;;2.00;;
75878;SDS011;64555;43.430;4.942;2022-11-20T07:29:11;4.00;;;4.00;;
75878;SDS011;64555;43.430;4.942;2022-11-20T07:31:36;5.00;;;3.00;;
75878;SDS011;64555;43.430;4.942;2022-11-20T07:34:01;3.00;;;3.00;;
75878;SDS011;64555;43.430;4.942;2022-11-20T07:36:26;5.50;;;5.00;;
75878;SDS011;64555;43.430;4.942;2022-11-20T07:38:52;4.00;;;4.00;;
75878;SDS011;64555;43.430;4.942;2022-11-20T07:41:17;3.67;;;3.67;;
75878;SDS011;64555;43.430;4.942;2022-11-20T07:43:42;3.00;;;2.25;;
75878;SDS011;64555;43.430;4.942;2022-11-20T07:46:08;3.00;;;3.00;;
75878;SDS011;64555;43.430;4.942;2022-11-20T07:48:33;5.00;;;3.00;;
75878;SDS011;64555;43.430;4.942;2022-11-20T07:50:58;5.00;;;3.00;;
75878;SDS011;64555;43.430;4.942;2022-11-20T07:53:24;4.00;;;3.00;;
75878;SDS011;64555;43.430;4.942;2022-11-20T07:55:49;4.00;;;3.00;;
75878;SDS011;64555;43.430;4.942;2022-11-20T07:58:17;3.00;;;3.00;;
75878;SDS011;64555;43.430;4.942;2022-11-20T08:00:42;3.00;;;3.00;;
75878;SDS011;64555;43.430;4.942;2022-11-20T08:03:07;3.50;;;3.00;;
75878;SDS011;64555;43.430;4.942;2022-11-20T08:05:33;3.00;;;3.00;;
75878;SDS011;64555;43.430;4.942;2022-11-20T08:07:58;4.00;;;4.00;;
75878;SDS011;64555;43.430;4.942;2022-11-20T08:10:24;3.00;;;3.00;;
75878;SDS011;64555;43.430;4.942;2022-11-20T08:12:50;3.00;;;3.00;;
75878;SDS011;64555;43.430;4.942;2022-11-20T08:15:34;5.00;;;4.40;;
75878;SDS011;64555;43.430;4.942;2022-11-20T08:18:00;3.00;;;3.00;;
75878;SDS011;64555;43.430;4.942;2022-11-20T08:20:26;3.75;;;3.75;;
75878;SDS011;64555;43.430;4.942;2022-11-20T08:22:51;3.00;;;3.00;;
75878;SDS011;64555;43.430;4.942;2022-11-20T08:25:16;4.00;;;4.00;;
75878;SDS011;64555;43.430;4.942;2022-11-20T08:27:42;2.00;;;2.00;;
75878;SDS011;64555;43.430;4.942;2022-11-20T08:30:07;4.50;;;3.00;;
75878;SDS011;64555;43.430;4.942;2022-11-20T08:32:32;3.00;;;3.00;;
75878;SDS011;64555;43.430;4.942;2022-11-20T08:34:59;4.00;;;4.00;;
75878;SDS011;64555;43.430;4.942;2022-11-20T08:37:25;3.75;;;2.75;;
75878;SDS011;64555;43.430;4.942;2022-11-20T08:39:50;4.00;;;2.00;;
75878;SDS011;64555;43.430;4.942;2022-11-20T08:42:15;3.00;;;3.00;;
75878;SDS011;64555;43.430;4.942;2022-11-20T08:44:41;5.33;;;3.33;;
75878;SDS011;64555;43.430;4.942;2022-11-20T08:47:10;3.60;;;3.60;;
75878;SDS011;64555;43.430;4.942;2022-11-20T08:49:35;4.75;;;3.75;;
75878;SDS011;64555;43.430;4.942;2022-11-20T08:52:01;4.00;;;4.00;;
75878;SDS011;64555;43.430;4.942;2022-11-20T08:54:26;4.00;;;4.00;;
75878;SDS011;64555;43.430;4.942;2022-11-20T08:56:51;3.00;;;3.00;;
75878;SDS011;64555;43.430;4.942;2022-11-20T08:59:17;3.60;;;2.00;;
75878;SDS011;64555;43.430;4.942;2022-11-20T09:01:42;2.75;;;2.75;;
75878;SDS011;64555;43.430;4.942;2022-11-20T09:04:07;2.00;;;1.50;;
75878;SDS011;64555;43.430;4.942;2022-11-20T09:06:33;2.75;;;2.75;;
75878;SDS011;64555;43.430;4.942;2022-11-20T09:08:58;3.00;;;3.00;;
75878;SDS011;64555;43.430;4.942;2022-11-20T09:11:23;1.25;;;1.25;;
75878;SDS011;64555;43.430;4.942;2022-11-20T09:13:49;4.00;;;3.00;;
75878;SDS011;64555;43.430;4.942;2022-11-20T09:16:14;5.00;;;4.00;;
75878;SDS011;64555;43.430;4.942;2022-11-20T09:18:39;5.00;;;3.50;;
75878;SDS011;64555;43.430;4.942;2022-11-20T09:21:08;3.00;;;3.00;;
75878;SDS011;64555;43.430;4.942;2022-11-20T09:23:36;4.00;;;3.00;;
75878;SDS011;64555;43.430;4.942;2022-11-20T09:26:11;4.00;;;3.00;;
75878;SDS011;64555;43.430;4.942;2022-11-20T09:28:37;2.60;;;2.60;;
75878;SDS011;64555;43.430;4.942;2022-11-20T09:31:06;2.25;;;2.00;;
75878;SDS011;64555;43.430;4.942;2022-11-20T09:33:32;3.00;;;3.00;;
75878;SDS011;64555;43.430;4.942;2022-11-20T09:35:57;6.00;;;4.00;;
75878;SDS011;64555;43.430;4.942;2022-11-20T09:38:22;2.33;;;2.33;;
75878;SDS011;64555;43.430;4.942;2022-11-20T09:41:03;3.00;;;3.00;;
75878;SDS011;64555;43.430;4.942;2022-11-20T09:53:54;3.00;;;3.00;;
75878;SDS011;64555;43.430;4.942;2022-11-20T09:56:21;3.00;;;3.00;;
75878;SDS011;64555;43.430;4.942;2022-11-20T09:58:49;2.00;;;2.00;;
75878;SDS011;64555;43.430;4.942;2022-11-20T10:01:16;4.50;;;3.50;;
75878;SDS011;64555;43.430;4.942;2022-11-20T10:06:11;1.50;;;1.50;;
75878;SDS011;64555;43.430;4.942;2022-11-20T10:11:21;4.00;;;3.00;;
75878;SDS011;64555;43.430;4.942;2022-11-20T10:19:02;4.33;;;3.67;;
75878;SDS011;64555;43.430;4.942;2022-11-20T10:21:39;4.00;;;3.00;;
75878;SDS011;64555;43.430;4.942;2022-11-20T10:29:24;3.00;;;2.00;;
75878;SDS011;64555;43.430;4.942;2022-11-20T10:31:56;2.40;;;2.40;;
75878;SDS011;64555;43.430;4.942;2022-11-20T10:34:37;2.00;;;2.00;;
75878;SDS011;64555;43.430;4.942;2022-11-20T10:37:15;3.80;;;2.00;;
75878;SDS011;64555;43.430;4.942;2022-11-20T10:42:26;2.25;;;2.25;;
75878;SDS011;64555;43.430;4.942;2022-11-20T10:44:53;2.50;;;1.50;;
75878;SDS011;64555;43.430;4.942;2022-11-20T10:47:26;3.00;;;3.00;;
75878;SDS011;64555;43.430;4.942;2022-11-20T10:49:53;1.25;;;1.25;;
75878;SDS011;64555;43.430;4.942;2022-11-20T10:52:29;1.60;;;1.60;;
75878;SDS011;64555;43.430;4.942;2022-11-20T10:58:04;4.00;;;3.00;;
75878;SDS011;64555;43.430;4.942;2022-11-20T11:00:35;2.00;;;2.00;;
75878;SDS011;64555;43.430;4.942;2022-11-20T11:03:00;2.25;;;2.25;;
75878;SDS011;64555;43.430;4.942;2022-11-20T11:05:36;2.75;;;2.75;;
75878;SDS011;64555;43.430;4.942;2022-11-20T11:08:03;3.00;;;2.00;;
75878;SDS011;64555;43.430;4.942;2022-11-20T11:10:38;1.00;;;1.00;;
75878;SDS011;64555;43.430;4.942;2022-11-20T11:13:06;1.80;;;1.80;;
75878;SDS011;64555;43.430;4.942;2022-11-20T11:15:38;4.00;;;2.00;;
75878;SDS011;64555;43.430;4.942;2022-11-20T11:18:04;2.60;;;2.00;;
75878;SDS011;64555;43.430;4.942;2022-11-20T11:20:29;1.40;;;1.00;;
75878;SDS011;64555;43.430;4.942;2022-11-20T11:22:56;2.50;;;0.50;;
75878;SDS011;64555;43.430;4.942;2022-11-20T11:25:27;2.00;;;2.00;;
75878;SDS011;64555;43.430;4.942;2022-11-20T11:27:53;1.00;;;1.00;;
75878;SDS011;64555;43.430;4.942;2022-11-20T11:30:21;2.00;;;2.00;;
75878;SDS011;64555;43.430;4.942;2022-11-20T11:32:47;0.00;;;0.00;;
75878;SDS011;64555;43.430;4.942;2022-11-20T11:35:23;2.00;;;2.00;;
75878;SDS011;64555;43.430;4.942;2022-11-20T11:37:48;2.00;;;2.00;;
75878;SDS011;64555;43.430;4.942;2022-11-20T11:40:14;2.00;;;2.00;;
75878;SDS011;64555;43.430;4.942;2022-11-20T11:42:44;3.00;;;3.00;;
75878;SDS011;64555;43.430;4.942;2022-11-20T11:45:11;1.80;;;1.80;;
75878;SDS011;64555;43.430;4.942;2022-11-20T11:52:55;2.00;;;2.00;;
75878;SDS011;64555;43.430;4.942;2022-11-20T11:55:44;0.00;;;0.00;;
75878;SDS011;64555;43.430;4.942;2022-11-20T12:00:45;2.00;;;2.00;;
75878;SDS011;64555;43.430;4.942;2022-11-20T12:03:19;4.40;;;2.00;;
75878;SDS011;64555;43.430;4.942;2022-11-20T12:05:47;3.00;;;2.00;;
75878;SDS011;64555;43.430;4.942;2022-11-20T12:13:12;1.50;;;1.50;;
75878;SDS011;64555;43.430;4.942;2022-11-20T12:15:39;1.00;;;1.00;;
75878;SDS011;64555;43.430;4.942;2022-11-20T12:18:09;1.00;;;1.00;;
75878;SDS011;64555;43.430;4.942;2022-11-20T12:20:41;2.00;;;2.00;;
75878;SDS011;64555;43.430;4.942;2022-11-20T12:23:21;0.25;;;0.25;;
75878;SDS011;64555;43.430;4.942;2022-11-20T12:25:52;3.00;;;2.00;;
75878;SDS011;64555;43.430;4.942;2022-11-20T12:31:09;3.00;;;2.00;;
75878;SDS011;64555;43.430;4.942;2022-11-20T12:38:54;1.00;;;1.00;;
75878;SDS011;64555;43.430;4.942;2022-11-20T12:41:39;3.00;;;1.00;;
75878;SDS011;64555;43.430;4.942;2022-11-20T12:50:24;2.00;;;2.00;;
75878;SDS011;64555;43.430;4.942;2022-11-20T12:52:57;1.00;;;1.00;;
75878;SDS011;64555;43.430;4.942;2022-11-20T13:01:04;2.00;;;2.00;;
75878;SDS011;64555;43.430;4.942;2022-11-20T13:03:36;1.00;;;1.00;;
75878;SDS011;64555;43.430;4.942;2022-11-20T13:06:37;2.00;;;1.00;;
75878;SDS011;64555;43.430;4.942;2022-11-20T13:08:55;1.00;;;1.00;;
75878;SDS011;64555;43.430;4.942;2022-11-20T13:19:40;2.00;;;2.00;;
75878;SDS011;64555;43.430;4.942;2022-11-20T13:22:07;2.00;;;1.50;;
75878;SDS011;64555;43.430;4.942;2022-11-20T13:24:32;2.00;;;2.00;;
75878;SDS011;64555;43.430;4.942;2022-11-20T13:29:29;2.00;;;2.00;;
75878;SDS011;64555;43.430;4.942;2022-11-20T13:32:13;1.50;;;1.50;;
75878;SDS011;64555;43.430;4.942;2022-11-20T13:34:39;3.25;;;1.50;;
75878;SDS011;64555;43.430;4.942;2022-11-20T13:37:04;3.00;;;1.00;;
75878;SDS011;64555;43.430;4.942;2022-11-20T13:39:31;0.00;;;0.00;;
75878;SDS011;64555;43.430;4.942;2022-11-20T13:41:57;12.80;;;7.20;;
75878;SDS011;64555;43.430;4.942;2022-11-20T13:46:57;1.50;;;1.50;;
75878;SDS011;64555;43.430;4.942;2022-11-20T13:54:58;1.00;;;1.00;;
75878;SDS011;64555;43.430;4.942;2022-11-20T14:00:12;2.00;;;1.75;;
75878;SDS011;64555;43.430;4.942;2022-11-20T14:02:37;2.00;;;2.00;;
75878;SDS011;64555;43.430;4.942;2022-11-20T14:05:03;3.00;;;2.00;;
75878;SDS011;64555;43.430;4.942;2022-11-20T14:07:35;2.00;;;2.00;;
75878;SDS011;64555;43.430;4.942;2022-11-20T14:10:02;3.20;;;1.00;;
75878;SDS011;64555;43.430;4.942;2022-11-20T14:12:29;3.00;;;1.75;;
75878;SDS011;64555;43.430;4.942;2022-11-20T14:14:54;2.00;;;2.00;;
75878;SDS011;64555;43.430;4.942;2022-11-20T14:17:21;2.00;;;2.00;;
75878;SDS011;64555;43.430;4.942;2022-11-20T14:19:47;2.40;;;2.40;;
75878;SDS011;64555;43.430;4.942;2022-11-20T14:22:21;2.25;;;2.00;;
75878;SDS011;64555;43.430;4.942;2022-11-20T14:24:47;0.40;;;0.40;;
75878;SDS011;64555;43.430;4.942;2022-11-20T14:27:16;3.00;;;2.00;;
75878;SDS011;64555;43.430;4.942;2022-11-20T14:29:43;2.00;;;0.40;;
75878;SDS011;64555;43.430;4.942;2022-11-20T14:32:09;2.00;;;1.00;;
75878;SDS011;64555;43.430;4.942;2022-11-20T14:34:39;1.25;;;1.25;;
75878;SDS011;64555;43.430;4.942;2022-11-20T14:37:06;0.75;;;0.75;;
75878;SDS011;64555;43.430;4.942;2022-11-20T14:39:36;1.50;;;1.50;;
75878;SDS011;64555;43.430;4.942;2022-11-20T14:42:15;1.00;;;1.00;;
75878;SDS011;64555;43.430;4.942;2022-11-20T14:44:41;1.00;;;1.00;;
75878;SDS011;64555;43.430;4.942;2022-11-20T14:47:08;1.60;;;0.20;;
75878;SDS011;64555;43.430;4.942;2022-11-20T14:49:35;4.00;;;1.00;;
75878;SDS011;64555;43.430;4.942;2022-11-20T14:52:12;0.40;;;0.40;;
75878;SDS011;64555;43.430;4.942;2022-11-20T14:54:48;2.00;;;1.00;;
75878;SDS011;64555;43.430;4.942;2022-11-20T14:57:27;0.00;;;0.00;;
75878;SDS011;64555;43.430;4.942;2022-11-20T15:02:30;1.00;;;1.00;;
75878;SDS011;64555;43.430;4.942;2022-11-20T15:04:59;0.00;;;0.00;;
75878;SDS011;64555;43.430;4.942;2022-11-20T15:07:33;2.00;;;2.00;;
75878;SDS011;64555;43.430;4.942;2022-11-20T15:10:06;3.00;;;2.00;;
75878;SDS011;64555;43.430;4.942;2022-11-20T15:12:33;1.00;;;1.00;;
75878;SDS011;64555;43.430;4.942;2022-11-20T15:15:00;1.00;;;1.00;;
75878;SDS011;64555;43.430;4.942;2022-11-20T15:17:25;1.00;;;1.00;;
75878;SDS011;64555;43.430;4.942;2022-11-20T15:19:51;1.00;;;0.00;;
75878;SDS011;64555;43.430;4.942;2022-11-20T15:22:17;0.00;;;0.00;;
75878;SDS011;64555;43.430;4.942;2022-11-20T15:24:42;3.00;;;1.00;;
75878;SDS011;64555;43.430;4.942;2022-11-20T15:27:08;1.00;;;1.00;;
75878;SDS011;64555;43.430;4.942;2022-11-20T15:29:33;2.00;;;1.00;;
75878;SDS011;64555;43.430;4.942;2022-11-20T15:31:58;2.00;;;2.00;;
75878;SDS011;64555;43.430;4.942;2022-11-20T15:34:23;4.00;;;3.00;;
75878;SDS011;64555;43.430;4.942;2022-11-20T15:36:49;2.00;;;2.00;;
75878;SDS011;64555;43.430;4.942;2022-11-20T15:39:14;4.00;;;2.00;;
75878;SDS011;64555;43.430;4.942;2022-11-20T15:41:40;1.25;;;1.00;;
75878;SDS011;64555;43.430;4.942;2022-11-20T15:44:05;1.00;;;1.00;;
75878;SDS011;64555;43.430;4.942;2022-11-20T15:46:31;1.25;;;0.50;;
75878;SDS011;64555;43.430;4.942;2022-11-20T15:49:02;2.00;;;2.00;;
75878;SDS011;64555;43.430;4.942;2022-11-20T15:51:31;4.00;;;2.67;;
75878;SDS011;64555;43.430;4.942;2022-11-20T15:53:58;1.25;;;1.25;;
75878;SDS011;64555;43.430;4.942;2022-11-20T15:56:24;3.00;;;1.00;;
75878;SDS011;64555;43.430;4.942;2022-11-20T15:58:49;2.00;;;2.00;;
75878;SDS011;64555;43.430;4.942;2022-11-20T16:01:16;2.00;;;2.00;;
75878;SDS011;64555;43.430;4.942;2022-11-20T16:03:41;0.50;;;0.50;;
75878;SDS011;64555;43.430;4.942;2022-11-20T16:06:07;2.67;;;1.00;;
75878;SDS011;64555;43.430;4.942;2022-11-20T16:08:32;2.00;;;2.00;;
75878;SDS011;64555;43.430;4.942;2022-11-20T16:10:58;6.00;;;4.75;;
75878;SDS011;64555;43.430;4.942;2022-11-20T16:13:23;14.25;;;13.00;;
75878;SDS011;64555;43.430;4.942;2022-11-20T16:16:07;26.33;;;15.67;;
75878;SDS011;64555;43.430;4.942;2022-11-20T16:18:36;20.00;;;14.50;;
75878;SDS011;64555;43.430;4.942;2022-11-20T16:21:02;18.75;;;15.00;;
75878;SDS011;64555;43.430;4.942;2022-11-20T16:23:27;33.00;;;19.00;;